Time;durP1;ratioP1;P1;durP2;ratioP2;P2;SDS_P1;SDS_P2;PMS_P1;PMS_P2;Temp;Humidity;BMP_temperature;BMP_pressure;BME280_temperature;BME280_humidity;BME280_pressure;Samples;Min_cycle;Max_cycle;Signal;HPM_P1;HPM_P2
2022/03/14 00:00:24;;;;;;;11.87;7.27;;;;;;;-0.26;78.64;102042.72;4991097;28;20404;-81
2022/03/14 00:02:51;;;;;;;13.17;7.40;;;;;;;-0.34;79.07;102049.53;5004660;28;20529;-81
2022/03/14 00:05:17;;;;;;;11.77;7.03;;;;;;;-0.48;78.99;102026.88;5002375;28;20088;-81
2022/03/14 00:07:44;;;;;;;12.33;7.60;;;;;;;-0.33;79.25;102051.34;5000678;28;20054;-83
2022/03/14 00:10:15;;;;;;;14.57;7.87;;;;;;;-0.45;80.05;102029.72;5000766;28;20034;-83
2022/03/14 00:12:42;;;;;;;15.70;8.03;;;;;;;-0.47;80.64;102031.19;5000498;28;20061;-80
2022/03/14 00:15:11;;;;;;;14.77;8.23;;;;;;;-0.42;80.78;102035.16;5002415;28;20034;-84
2022/03/14 00:17:37;;;;;;;13.10;8.00;;;;;;;-0.38;80.84;102045.75;5020935;28;20476;-85
2022/03/14 00:20:08;;;;;;;13.67;7.20;;;;;;;-0.42;80.57;102042.75;5004580;28;20041;-86
2022/03/14 00:22:37;;;;;;;13.87;7.77;;;;;;;-0.49;80.84;102053.88;5021482;28;20028;-80
2022/03/14 00:25:03;;;;;;;14.43;8.05;;;;;;;-0.42;80.85;102061.41;5020963;28;20079;-80
2022/03/14 00:27:29;;;;;;;11.77;7.70;;;;;;;-0.39;80.80;102051.56;5020588;28;20487;-77
2022/03/14 00:29:54;;;;;;;13.87;7.97;;;;;;;-0.39;81.21;102063.38;5024303;28;20029;-81
2022/03/14 00:32:21;;;;;;;14.00;7.97;;;;;;;-0.53;80.83;102021.31;5012877;28;20022;-82
2022/03/14 00:34:46;;;;;;;14.90;8.23;;;;;;;-0.56;81.68;102011.75;5030810;28;20033;-84
2022/03/14 00:37:12;;;;;;;17.90;8.57;;;;;;;-0.62;81.13;102000.94;5012833;28;20090;-82
2022/03/14 00:39:37;;;;;;;15.50;8.77;;;;;;;-0.76;80.84;101974.13;5030632;28;20120;-82
2022/03/14 00:42:03;;;;;;;13.70;8.60;;;;;;;-0.43;80.65;102028.25;4995750;28;20506;-81
2022/03/14 00:44:31;;;;;;;15.70;8.13;;;;;;;-0.13;80.14;102070.31;4997238;28;20021;-83
2022/03/14 00:46:57;;;;;;;14.43;8.13;;;;;;;-0.09;79.85;102078.41;4996368;28;20040;-80
2022/03/14 00:49:22;;;;;;;12.87;8.17;;;;;;;-0.12;79.13;102065.41;5030608;28;20025;-82
2022/03/14 00:51:48;;;;;;;15.53;8.50;;;;;;;0.06;78.80;102071.50;5030496;28;20029;-82
2022/03/14 00:54:13;;;;;;;15.03;8.63;;;;;;;0.22;78.22;102075.66;5029866;28;20033;-82
2022/03/14 00:56:39;;;;;;;14.40;7.80;;;;;;;0.19;77.26;102058.47;5012544;28;20403;-83
2022/03/14 00:59:04;;;;;;;14.03;7.80;;;;;;;0.20;77.75;102079.66;5012705;28;20407;-80
2022/03/14 01:01:30;;;;;;;12.67;8.17;;;;;;;0.13;78.19;102073.06;5030245;28;20492;-82
2022/03/14 01:03:56;;;;;;;14.77;8.57;;;;;;;0.19;78.31;102065.16;5012564;28;20054;-79
2022/03/14 01:06:21;;;;;;;13.37;7.73;;;;;;;0.38;77.93;102068.88;5012336;28;20395;-80
2022/03/14 01:08:47;;;;;;;16.67;8.37;;;;;;;0.47;77.99;102080.00;5012289;28;20029;-81
2022/03/14 01:11:13;;;;;;;14.53;8.53;;;;;;;0.36;78.27;102072.88;5013242;28;20479;-84
2022/03/14 01:13:39;;;;;;;15.60;8.33;;;;;;;0.03;78.79;102029.66;5029124;28;20037;-82
2022/03/14 01:16:05;;;;;;;14.13;8.17;;;;;;;0.18;78.69;102063.38;5029495;28;20418;-79
2022/03/14 01:18:31;;;;;;;15.23;8.67;;;;;;;0.34;78.42;102069.31;5028184;28;20037;-80
2022/03/14 01:20:56;;;;;;;15.70;7.83;;;;;;;0.12;78.39;102041.66;5027897;28;20099;-79
2022/03/14 01:23:22;;;;;;;14.43;9.17;;;;;;;0.12;80.36;102040.78;4997450;28;20116;-80
2022/03/14 01:25:48;;;;;;;15.73;8.43;;;;;;;0.10;79.72;102083.78;5030494;28;20403;-80
2022/03/14 01:28:13;;;;;;;12.17;8.00;;;;;;;0.07;79.84;102100.34;5028809;28;20025;-78
2022/03/14 01:30:40;;;;;;;14.50;8.57;;;;;;;0.00;80.91;102101.34;5029261;28;20025;-78
2022/03/14 01:33:05;;;;;;;14.73;8.47;;;;;;;0.01;80.89;102095.50;4996020;28;20045;-78
2022/03/14 01:35:31;;;;;;;14.23;8.30;;;;;;;0.00;81.00;102088.66;5030205;28;20033;-78
2022/03/14 01:37:57;;;;;;;13.77;8.40;;;;;;;0.05;81.47;102081.50;5030155;28;20040;-79
2022/03/14 01:40:24;;;;;;;14.57;8.97;;;;;;;-0.15;81.67;102051.47;5030919;28;20139;-75
2022/03/14 01:42:50;;;;;;;16.40;8.97;;;;;;;-0.12;81.49;102067.94;5030330;28;20107;-79
2022/03/14 01:45:18;;;;;;;15.27;8.97;;;;;;;0.10;82.17;102106.66;5012374;28;20586;-78
2022/03/14 01:47:45;;;;;;;15.83;8.63;;;;;;;0.01;81.27;102082.81;5012618;28;20034;-82
2022/03/14 01:50:12;;;;;;;14.43;8.00;;;;;;;0.03;81.01;102088.06;5012767;28;20416;-81
2022/03/14 01:52:37;;;;;;;13.43;8.37;;;;;;;0.00;81.20;102098.81;5012435;28;20033;-79
2022/03/14 01:55:04;;;;;;;13.83;7.90;;;;;;;-0.20;82.01;102073.81;5029399;28;20087;-81
2022/03/14 01:57:32;;;;;;;15.80;7.80;;;;;;;0.01;81.49;102108.19;5029888;28;20067;-81
2022/03/14 01:59:59;;;;;;;12.90;8.40;;;;;;;0.11;80.83;102108.47;5028951;28;20065;-82
2022/03/14 02:02:25;;;;;;;14.43;8.97;;;;;;;0.22;79.76;102113.75;5005822;28;20050;-85
2022/03/14 02:04:50;;;;;;;15.60;8.97;;;;;;;0.14;80.82;102102.78;4999812;28;20037;-84
2022/03/14 02:07:16;;;;;;;17.37;9.37;;;;;;;-0.02;80.82;102103.69;5010732;28;20041;-81
2022/03/14 02:09:42;;;;;;;17.93;9.30;;;;;;;-0.11;81.99;102109.44;5029324;28;20032;-81
2022/03/14 02:12:08;;;;;;;21.57;9.67;;;;;;;-0.07;82.51;102125.16;5011530;28;20462;-80
2022/03/14 02:14:39;;;;;;;16.77;9.50;;;;;;;-0.12;82.64;102128.84;5029006;28;20056;-81
2022/03/14 02:17:18;;;;;;;16.10;8.77;;;;;;;-0.19;83.85;102131.47;5011964;28;20057;-82
2022/03/14 02:19:43;;;;;;;17.83;9.97;;;;;;;-0.20;84.32;102128.06;5011935;28;20044;-81
2022/03/14 02:22:14;;;;;;;19.70;8.83;;;;;;;-0.46;85.09;102116.72;5029786;28;20439;-82
2022/03/14 02:24:44;;;;;;;14.63;8.83;;;;;;;-0.35;85.79;102123.84;5011708;28;20037;-82
2022/03/14 02:27:11;;;;;;;16.47;9.27;;;;;;;-0.41;86.16;102134.25;5008591;28;20495;-81
2022/03/14 02:29:37;;;;;;;17.10;9.87;;;;;;;-0.47;85.78;102117.44;5029655;28;20030;-81
2022/03/14 02:32:04;;;;;;;16.73;9.13;;;;;;;-0.38;86.04;102123.53;5012007;28;20048;-81
2022/03/14 02:34:29;;;;;;;15.83;9.60;;;;;;;-0.40;85.30;102145.28;5012024;28;20026;-81
2022/03/14 02:36:55;;;;;;;16.10;9.17;;;;;;;-0.46;86.36;102131.94;5029965;28;20102;-82
2022/03/14 02:39:20;;;;;;;15.13;9.03;;;;;;;-0.40;85.93;102150.38;5029522;28;20025;-81
2022/03/14 02:41:45;;;;;;;16.53;10.00;;;;;;;-0.44;85.85;102135.56;5032150;28;20112;-81
2022/03/14 02:44:11;;;;;;;16.60;9.97;;;;;;;-0.46;86.84;102139.56;5015582;28;20079;-80
2022/03/14 02:46:38;;;;;;;15.20;8.97;;;;;;;-0.38;86.41;102154.88;4971792;28;20073;-83
2022/03/14 02:49:09;;;;;;;17.83;9.10;;;;;;;-0.39;86.53;102159.78;4955646;28;20470;-83
2022/03/14 02:51:39;;;;;;;18.00;9.13;;;;;;;-0.39;87.25;102162.31;4955492;28;20034;-80
2022/03/14 02:54:06;;;;;;;17.30;9.37;;;;;;;-0.38;86.65;102169.22;4971564;28;20034;-80
2022/03/14 02:56:36;;;;;;;14.97;9.17;;;;;;;-0.45;86.62;102154.94;4955637;28;20030;-81
2022/03/14 02:59:05;;;;;;;15.77;8.38;;;;;;;-0.47;85.86;102145.34;4971417;28;20043;-80
2022/03/14 03:01:31;;;;;;;16.00;8.88;;;;;;;-0.39;85.38;102157.25;4970876;28;20137;-81
2022/03/14 03:03:57;;;;;;;14.10;8.40;;;;;;;-0.39;85.94;102167.41;4971230;28;20509;-79
2022/03/14 03:06:23;;;;;;;16.97;9.10;;;;;;;-0.47;86.03;102150.44;4971671;28;20042;-80
2022/03/14 03:08:49;;;;;;;16.63;8.63;;;;;;;-0.38;85.99;102185.31;4954665;28;20049;-82
2022/03/14 03:11:15;;;;;;;15.17;8.97;;;;;;;-0.48;86.60;102171.50;4971334;28;20429;-82
2022/03/14 03:13:41;;;;;;;14.87;8.80;;;;;;;-0.46;86.43;102170.91;4971596;28;20042;-80
2022/03/14 03:16:13;;;;;;;13.93;7.93;;;;;;;-0.37;86.05;102176.09;4972075;28;20046;-80
2022/03/14 03:18:39;;;;;;;15.07;9.23;;;;;;;-0.36;86.20;102188.06;4971881;28;20039;-80
2022/03/14 03:21:05;;;;;;;15.93;8.73;;;;;;;-0.39;86.06;102183.50;4939554;28;20031;-81
2022/03/14 03:23:33;;;;;;;13.23;8.30;;;;;;;-0.25;86.10;102187.56;4972612;28;20041;-80
2022/03/14 03:25:58;;;;;;;15.77;8.70;;;;;;;-0.21;86.08;102184.63;5015473;28;20021;-81
2022/03/14 03:28:25;;;;;;;15.33;9.63;;;;;;;-0.20;85.56;102193.13;5015193;28;20036;-80
2022/03/14 03:30:51;;;;;;;15.83;8.70;;;;;;;-0.22;85.45;102192.97;5032984;28;20408;-79
2022/03/14 03:33:16;;;;;;;14.77;8.40;;;;;;;-0.64;85.47;102143.56;5032800;28;20033;-81
2022/03/14 03:35:42;;;;;;;15.30;9.40;;;;;;;-0.26;86.04;102195.91;5032803;28;20034;-79
2022/03/14 03:38:08;;;;;;;16.60;8.97;;;;;;;-0.38;86.09;102184.44;5014932;28;20077;-80
2022/03/14 03:40:33;;;;;;;20.63;10.07;;;;;;;-0.30;85.75;102203.03;5033084;28;20033;-80
2022/03/14 03:42:59;;;;;;;14.70;9.00;;;;;;;-0.36;85.25;102198.19;5032989;28;20403;-79
2022/03/14 03:45:24;;;;;;;13.80;8.73;;;;;;;-0.62;85.23;102153.13;5032740;28;20535;-80
2022/03/14 03:47:50;;;;;;;17.03;8.10;;;;;;;-0.58;85.59;102165.41;5014844;28;20026;-80
2022/03/14 03:50:16;;;;;;;16.30;9.30;;;;;;;-0.67;85.82;102154.28;5032604;28;20048;-80
2022/03/14 03:52:42;;;;;;;16.33;9.33;;;;;;;-0.38;85.91;102202.19;5013703;28;20033;-81
2022/03/14 03:55:09;;;;;;;16.47;9.10;;;;;;;-0.42;86.79;102200.97;5014633;28;20025;-80
2022/03/14 03:57:35;;;;;;;20.37;9.47;;;;;;;-0.68;87.15;102165.16;5015054;28;20036;-79
2022/03/14 04:00:04;;;;;;;21.80;9.53;;;;;;;-0.48;88.04;102220.59;5032682;28;20037;-80
2022/03/14 04:02:35;;;;;;;16.37;9.03;;;;;;;-0.59;87.45;102210.91;5032410;28;20058;-80
2022/03/14 04:05:00;;;;;;;18.67;10.80;;;;;;;-0.90;87.67;102167.84;5032241;28;20103;-81
2022/03/14 04:07:26;;;;;;;17.47;10.67;;;;;;;-0.70;87.71;102210.63;5014636;28;20488;-82
2022/03/14 04:09:55;;;;;;;15.50;9.47;;;;;;;-0.84;88.06;102200.59;5014510;28;20033;-82
2022/03/14 04:12:24;;;;;;;14.07;9.75;;;;;;;-0.63;89.00;102245.19;5032292;28;20041;-82
2022/03/14 04:14:51;;;;;;;15.50;9.37;;;;;;;-0.73;88.78;102227.16;5014765;28;20033;-82
2022/03/14 04:17:17;;;;;;;19.80;8.57;;;;;;;-0.59;88.22;102244.78;5014319;28;20487;-81
2022/03/14 04:19:42;;;;;;;20.03;9.40;;;;;;;-0.58;88.21;102256.72;5014255;28;20040;-81
2022/03/14 04:22:08;;;;;;;16.07;9.00;;;;;;;-0.59;87.65;102238.81;5032255;28;20449;-81
2022/03/14 04:24:36;;;;;;;20.50;9.80;;;;;;;-0.63;88.21;102250.25;5031970;28;20546;-81
2022/03/14 04:27:02;;;;;;;21.03;11.07;;;;;;;-0.75;88.06;102226.94;5014247;28;20040;-81
2022/03/14 04:29:28;;;;;;;22.70;10.87;;;;;;;-1.11;88.22;102191.72;5014092;28;20052;-81
2022/03/14 04:31:54;;;;;;;35.73;15.47;;;;;;;-0.70;88.62;102260.44;5031682;28;20472;-81
2022/03/14 04:34:19;;;;;;;35.20;15.63;;;;;;;-0.72;88.68;102256.84;5014163;28;20083;-81
2022/03/14 04:36:45;;;;;;;37.67;15.77;;;;;;;-0.79;88.40;102252.72;5031952;28;20033;-81
2022/03/14 04:39:10;;;;;;;35.83;15.00;;;;;;;-0.86;88.43;102242.63;5031897;28;20022;-81
2022/03/14 04:41:37;;;;;;;35.40;15.40;;;;;;;-0.74;88.40;102270.97;5031663;28;20029;-81
2022/03/14 04:44:04;;;;;;;35.33;16.30;;;;;;;-0.86;89.00;102263.81;5031523;28;20480;-81
2022/03/14 04:46:29;;;;;;;40.10;15.77;;;;;;;-0.86;89.22;102265.44;5031385;28;20033;-81
2022/03/14 04:48:55;;;;;;;34.17;14.73;;;;;;;-0.84;88.96;102280.09;5031628;28;20450;-80
2022/03/14 04:51:21;;;;;;;35.33;13.47;;;;;;;-0.75;88.37;102277.66;5013770;28;20174;-81
2022/03/14 04:53:46;;;;;;;35.10;13.97;;;;;;;-0.85;88.37;102265.63;5031458;28;20036;-80
2022/03/14 04:56:12;;;;;;;29.57;12.70;;;;;;;-0.76;88.71;102282.56;5031348;28;20037;-79
2022/03/14 04:58:37;;;;;;;28.10;13.50;;;;;;;-0.73;88.75;102285.47;5031437;28;20487;-78
2022/03/14 05:01:03;;;;;;;24.00;12.00;;;;;;;-0.87;89.40;102268.72;5013390;28;20032;-78
2022/03/14 05:03:28;;;;;;;20.67;10.20;;;;;;;-0.72;89.21;102290.72;5031078;28;20053;-79
2022/03/14 05:05:54;;;;;;;15.03;9.33;;;;;;;-0.67;89.02;102292.13;5010678;28;20423;-79
2022/03/14 05:08:20;;;;;;;15.63;10.17;;;;;;;-0.83;88.37;102258.19;5031225;28;20040;-78
2022/03/14 05:10:45;;;;;;;15.13;9.67;;;;;;;-0.50;87.91;102306.69;5031164;28;20025;-78
2022/03/14 05:13:11;;;;;;;17.10;10.30;;;;;;;-0.44;87.16;102311.53;5031021;28;20040;-79
2022/03/14 05:15:38;;;;;;;19.80;11.20;;;;;;;-0.45;86.23;102302.09;5030832;28;20487;-79
2022/03/14 05:18:03;;;;;;;17.03;11.27;;;;;;;-0.42;85.24;102299.03;5031179;28;20041;-78
2022/03/14 05:20:29;;;;;;;24.10;9.80;;;;;;;-0.41;85.82;102304.28;5012179;28;20029;-77
2022/03/14 05:22:55;;;;;;;20.33;9.30;;;;;;;-0.34;86.05;102328.69;5050297;28;20550;-77
2022/03/14 05:25:23;;;;;;;17.30;10.13;;;;;;;-0.46;85.25;102297.78;5050800;28;20064;-78
2022/03/14 05:27:48;;;;;;;19.17;10.57;;;;;;;-0.60;85.93;102259.81;5050777;28;20029;-78
2022/03/14 05:30:15;;;;;;;17.10;10.67;;;;;;;-0.19;85.07;102330.38;5032896;28;20056;-78
2022/03/14 05:32:41;;;;;;;22.10;11.67;;;;;;;-0.36;84.75;102275.22;5050824;28;20407;-78
2022/03/14 05:35:15;;;;;;;20.70;10.80;;;;;;;-0.02;84.90;102332.22;5033326;28;20039;-77
2022/03/14 05:37:42;;;;;;;22.63;9.80;;;;;;;0.02;84.28;102338.53;5030225;28;20033;-78
2022/03/14 05:40:09;;;;;;;22.13;10.30;;;;;;;0.07;82.49;102337.41;5030204;28;20025;-79
2022/03/14 05:42:34;;;;;;;24.10;11.83;;;;;;;-0.23;82.33;102296.88;5045036;28;20036;-78
2022/03/14 05:45:00;;;;;;;22.57;10.70;;;;;;;0.05;81.80;102338.88;5018409;28;20037;-78
2022/03/14 05:47:25;;;;;;;23.93;12.87;;;;;;;0.02;82.63;102341.06;5013030;28;20470;-78
2022/03/14 05:49:51;;;;;;;20.80;11.77;;;;;;;0.10;82.64;102358.06;5030685;28;20036;-77
2022/03/14 05:52:17;;;;;;;20.70;10.73;;;;;;;0.05;83.57;102343.97;5012928;28;20029;-78
2022/03/14 05:54:43;;;;;;;19.53;11.53;;;;;;;0.09;83.44;102360.44;5030695;28;20025;-78
2022/03/14 05:57:28;;;;;;;15.67;9.13;;;;;;;-0.06;83.42;102339.34;5030552;28;20025;-77
2022/03/14 05:59:53;;;;;;;16.30;8.50;;;;;;;0.01;83.26;102362.13;4995481;28;20081;-77
2022/03/14 06:02:24;;;;;;;15.03;9.30;;;;;;;-0.20;83.31;102315.88;4998247;28;20517;-78
2022/03/14 06:04:51;;;;;;;18.47;9.03;;;;;;;0.11;83.46;102357.34;4982779;28;20052;-79
2022/03/14 06:07:19;;;;;;;14.57;9.00;;;;;;;0.05;83.20;102333.81;4981551;28;20419;-78
2022/03/14 06:10:05;;;;;;;16.37;9.03;;;;;;;0.36;82.71;102370.16;4997199;28;20080;-78
2022/03/14 06:12:31;;;;;;;16.17;9.57;;;;;;;0.43;81.45;102375.16;4968606;28;20041;-77
2022/03/14 06:14:58;;;;;;;16.33;9.57;;;;;;;0.52;81.83;102377.78;4951224;28;20177;-77
2022/03/14 06:17:24;;;;;;;16.43;10.40;;;;;;;0.46;80.92;102378.06;4972950;28;20039;-78
2022/03/14 06:19:50;;;;;;;14.57;9.63;;;;;;;0.63;82.26;102384.03;4972788;28;20120;-78
2022/03/14 06:22:19;;;;;;;13.83;8.17;;;;;;;0.51;81.25;102344.59;4972605;28;20031;-78
2022/03/14 06:24:47;;;;;;;16.60;8.95;;;;;;;0.72;80.53;102368.88;4972529;28;20033;-78
2022/03/14 06:27:16;;;;;;;15.07;8.37;;;;;;;0.87;77.34;102378.13;4972584;28;20783;-77
2022/03/14 06:29:42;;;;;;;20.27;11.52;;;;;;;1.06;78.45;102396.28;4972643;28;20401;-78
2022/03/14 06:32:08;;;;;;;18.03;9.97;;;;;;;1.24;77.85;102398.97;4992308;28;20202;-78
2022/03/14 06:34:34;;;;;;;21.10;12.67;;;;;;;1.44;78.41;102398.50;4985882;28;20121;-78
2022/03/14 06:36:59;;;;;;;15.93;9.43;;;;;;;1.70;76.36;102391.03;4988844;28;20043;-78
2022/03/14 06:39:25;;;;;;;20.63;13.33;;;;;;;1.81;73.90;102361.59;4991953;28;20078;-79
2022/03/14 06:41:51;;;;;;;20.73;13.63;;;;;;;2.06;72.23;102381.94;4991904;28;20069;-79
2022/03/14 06:44:19;;;;;;;18.97;10.70;;;;;;;2.45;70.79;102402.00;4963383;28;20035;-80
2022/03/14 06:46:45;;;;;;;14.40;10.00;;;;;;;2.55;71.55;102396.19;4969801;28;20066;-79
2022/03/14 06:49:13;;;;;;;15.77;9.40;;;;;;;2.72;69.08;102408.09;4980234;28;20528;-79
2022/03/14 06:51:42;;;;;;;17.63;10.03;;;;;;;2.90;68.46;102402.25;5012526;28;20506;-79
2022/03/14 06:54:09;;;;;;;19.27;10.20;;;;;;;2.98;68.70;102395.38;5006855;28;20502;-79
2022/03/14 06:56:34;;;;;;;17.63;10.13;;;;;;;3.19;66.30;102417.00;5005446;28;20053;-79
2022/03/14 06:59:00;;;;;;;14.70;8.43;;;;;;;3.23;65.59;102405.44;5003547;28;20041;-79
2022/03/14 07:01:28;;;;;;;17.73;9.40;;;;;;;3.57;64.38;102413.81;5021769;28;20036;-78
2022/03/14 07:03:54;;;;;;;25.05;9.23;;;;;;;3.67;64.30;102418.16;5021929;28;20048;-80
2022/03/14 07:06:19;;;;;;;16.90;9.48;;;;;;;3.77;63.89;102419.94;5021582;28;20515;-79
2022/03/14 07:08:45;;;;;;;24.58;12.00;;;;;;;3.78;62.93;102393.66;5019776;28;20034;-80
2022/03/14 07:11:10;;;;;;;26.40;12.82;;;;;;;3.75;63.15;102417.25;5021434;28;20033;-79
2022/03/14 07:13:36;;;;;;;18.65;10.60;;;;;;;3.81;63.36;102432.25;5020848;28;20474;-78
2022/03/14 07:16:01;;;;;;;17.23;8.68;;;;;;;3.97;63.11;102404.84;5037819;28;20048;-80
2022/03/14 07:18:27;;;;;;;22.23;9.35;;;;;;;4.30;62.06;102421.56;5044013;28;20036;-79
2022/03/14 07:20:52;;;;;;;31.90;14.82;;;;;;;4.31;63.61;102428.50;5042375;28;20083;-79
2022/03/14 07:23:18;;;;;;;24.75;10.30;;;;;;;4.36;62.70;102431.44;5042475;28;20070;-79
2022/03/14 07:25:43;;;;;;;24.85;9.05;;;;;;;4.37;61.48;102423.94;5043606;28;20109;-80
2022/03/14 07:28:10;;;;;;;15.15;7.97;;;;;;;4.54;60.09;102428.06;5041774;28;20395;-79
2022/03/14 07:30:37;;;;;;;15.63;7.75;;;;;;;4.82;60.21;102435.75;5042791;28;20021;-80
2022/03/14 07:33:02;;;;;;;20.77;8.55;;;;;;;4.89;59.48;102426.94;5043399;28;20021;-80
2022/03/14 07:35:29;;;;;;;21.00;7.85;;;;;;;5.04;57.79;102441.94;5023709;28;20411;-79
2022/03/14 07:37:55;;;;;;;17.27;9.25;;;;;;;5.15;58.05;102442.13;5025111;28;20021;-80
2022/03/14 07:40:21;;;;;;;21.88;9.32;;;;;;;5.18;58.77;102419.38;5025225;28;20021;-79
2022/03/14 07:42:50;;;;;;;14.35;7.40;;;;;;;5.24;56.85;102418.13;5041611;28;20036;-79
2022/03/14 07:45:18;;;;;;;17.43;7.67;;;;;;;5.40;56.70;102439.22;5043204;28;20025;-79
2022/03/14 07:47:44;;;;;;;18.08;8.07;;;;;;;5.40;55.80;102441.78;5043623;28;20270;-79
2022/03/14 07:50:11;;;;;;;13.95;7.43;;;;;;;5.47;55.59;102444.13;5041349;28;20104;-82
2022/03/14 07:52:37;;;;;;;15.23;8.45;;;;;;;5.37;56.55;102454.31;5042754;28;20037;-78
2022/03/14 07:55:05;;;;;;;11.65;7.55;;;;;;;5.22;57.52;102452.91;5042929;28;20037;-80
2022/03/14 07:57:31;;;;;;;18.48;10.00;;;;;;;5.14;57.63;102437.75;5041675;28;20071;-81
2022/03/14 08:00:01;;;;;;;12.77;7.53;;;;;;;5.07;57.17;102409.81;5008165;28;20060;-79
2022/03/14 08:02:27;;;;;;;12.85;7.78;;;;;;;5.44;55.54;102453.19;5025080;28;20115;-79
2022/03/14 08:04:52;;;;;;;12.55;8.05;;;;;;;5.28;55.76;102450.91;5041415;28;20029;-79
2022/03/14 08:07:20;;;;;;;10.98;6.90;;;;;;;5.24;55.29;102433.47;5041829;28;20037;-80
2022/03/14 08:09:48;;;;;;;13.63;7.13;;;;;;;5.49;54.95;102460.53;5025166;28;20053;-80
2022/03/14 08:12:14;;;;;;;18.33;10.07;;;;;;;5.47;54.66;102440.66;5018144;28;20120;-80
2022/03/14 08:14:40;;;;;;;17.48;10.20;;;;;;;5.39;55.74;102436.53;5024285;28;20021;-80
2022/03/14 08:17:06;;;;;;;14.75;8.43;;;;;;;5.34;54.22;102431.88;5024673;28;20033;-79
2022/03/14 08:19:32;;;;;;;11.25;6.68;;;;;;;5.46;54.98;102449.13;5040784;28;20034;-79
2022/03/14 08:21:58;;;;;;;15.05;7.95;;;;;;;5.55;54.32;102459.31;5024253;28;20475;-80
2022/03/14 08:24:24;;;;;;;11.27;7.15;;;;;;;5.32;54.43;102453.91;5042253;28;20025;-78
2022/03/14 08:26:51;;;;;;;14.93;7.90;;;;;;;5.14;54.86;102458.25;5040382;28;20116;-80
2022/03/14 08:29:17;;;;;;;13.55;8.68;;;;;;;4.85;54.97;102448.81;5042227;28;20017;-77
2022/03/14 08:31:43;;;;;;;12.32;7.40;;;;;;;4.48;55.57;102398.47;5041525;28;20060;-78
2022/03/14 08:34:11;;;;;;;15.77;7.60;;;;;;;4.90;55.65;102443.19;5040768;28;20480;-79
2022/03/14 08:36:40;;;;;;;13.85;8.23;;;;;;;4.52;56.78;102408.22;5038295;28;20429;-79
2022/03/14 08:39:09;;;;;;;12.25;7.80;;;;;;;4.62;54.88;102440.66;5038304;28;20061;-80
2022/03/14 08:41:36;;;;;;;14.07;7.38;;;;;;;4.60;56.67;102445.66;5023018;28;20065;-79
2022/03/14 08:44:06;;;;;;;21.70;9.65;;;;;;;4.60;56.36;102460.06;5042419;28;20032;-80
2022/03/14 08:46:31;;;;;;;17.83;7.15;;;;;;;4.51;58.26;102455.91;5023841;28;20025;-79
2022/03/14 08:48:58;;;;;;;15.35;8.95;;;;;;;4.78;59.51;102453.22;5040604;28;20021;-80
2022/03/14 08:51:24;;;;;;;15.23;7.88;;;;;;;4.91;57.95;102438.25;5024455;28;20483;-79
2022/03/14 08:53:50;;;;;;;11.50;7.10;;;;;;;5.04;54.20;102426.56;5023254;28;20021;-80
2022/03/14 08:56:15;;;;;;;12.40;6.80;;;;;;;5.04;52.63;102419.78;5040583;28;20025;-79
2022/03/14 08:58:41;;;;;;;12.15;6.82;;;;;;;5.31;51.80;102464.91;5041990;28;20570;-79
2022/03/14 09:01:07;;;;;;;12.88;6.70;;;;;;;5.24;52.71;102447.19;5022681;28;20037;-78
2022/03/14 09:03:33;;;;;;;13.90;7.80;;;;;;;5.32;53.18;102448.78;5022922;28;20049;-78
2022/03/14 09:05:58;;;;;;;15.23;10.27;;;;;;;5.23;54.58;102450.50;5041920;28;20503;-79
2022/03/14 09:08:27;;;;;;;15.82;9.52;;;;;;;5.26;51.49;102453.34;5039893;28;20083;-76
2022/03/14 09:10:55;;;;;;;18.23;11.48;;;;;;;5.30;52.12;102457.97;5040909;28;20056;-80
2022/03/14 09:13:23;;;;;;;11.57;6.20;;;;;;;5.21;50.89;102457.16;5041736;28;20104;-79
2022/03/14 09:15:50;;;;;;;12.10;7.15;;;;;;;5.15;51.23;102446.34;5039881;28;20467;-80
2022/03/14 09:18:16;;;;;;;21.02;11.43;;;;;;;5.14;52.41;102442.88;5042572;28;20036;-79
2022/03/14 09:20:42;;;;;;;21.00;14.10;;;;;;;5.07;52.30;102445.66;5043408;28;20391;-79
2022/03/14 09:23:09;;;;;;;21.20;12.50;;;;;;;5.02;52.40;102445.25;5035082;28;20029;-78
2022/03/14 09:25:35;;;;;;;24.85;14.15;;;;;;;5.05;51.78;102459.06;5039661;28;20017;-79
2022/03/14 09:28:01;;;;;;;14.50;7.38;;;;;;;4.89;51.14;102447.44;5040621;28;20037;-80
2022/03/14 09:30:27;;;;;;;14.20;8.02;;;;;;;4.93;52.16;102453.72;5038974;28;20029;-79
2022/03/14 09:32:54;;;;;;;13.20;8.02;;;;;;;5.02;51.41;102454.56;5012992;28;20035;-79
2022/03/14 09:35:21;;;;;;;9.38;5.90;;;;;;;5.06;52.44;102472.03;5030377;28;20469;-80
2022/03/14 09:37:47;;;;;;;13.18;6.15;;;;;;;4.65;54.19;102429.06;5030414;28;20064;-80
2022/03/14 09:40:18;;;;;;;10.43;6.07;;;;;;;4.94;52.24;102476.91;5030615;28;20021;-80
2022/03/14 09:42:50;;;;;;;9.55;6.25;;;;;;;5.09;50.80;102472.28;5041356;28;20091;-79
2022/03/14 09:45:16;;;;;;;11.82;6.25;;;;;;;5.12;50.94;102457.22;5036321;28;20025;-80
2022/03/14 09:47:51;;;;;;;10.57;5.97;;;;;;;5.27;50.53;102467.03;5002631;28;20028;-79
2022/03/14 09:50:40;;;;;;;9.05;6.28;;;;;;;5.32;49.29;102476.94;5020316;28;20029;-79
2022/03/14 09:53:09;;;;;;;10.10;5.90;;;;;;;5.47;50.60;102489.31;4936684;29;20114;-78
2022/03/14 09:55:44;;;;;;;8.95;5.78;;;;;;;5.47;48.98;102456.94;4937856;29;20052;-79
2022/03/14 09:58:15;;;;;;;12.43;8.40;;;;;;;5.59;49.83;102464.81;4930282;29;20120;-79
2022/03/14 10:00:42;;;;;;;12.07;6.70;;;;;;;5.70;49.79;102473.47;4930380;29;20074;-79
2022/03/14 10:03:08;;;;;;;12.38;6.18;;;;;;;5.54;49.54;102458.38;4929487;29;20147;-84
2022/03/14 10:05:34;;;;;;;14.88;6.50;;;;;;;5.79;49.59;102466.56;4944289;29;20542;-78
2022/03/14 10:08:00;;;;;;;11.48;6.63;;;;;;;5.94;49.80;102477.31;4950004;29;20066;-78
2022/03/14 10:10:27;;;;;;;10.35;5.65;;;;;;;5.85;49.18;102457.66;4949938;29;20075;-78
2022/03/14 10:12:53;;;;;;;11.82;6.10;;;;;;;6.13;50.13;102473.81;4933906;29;20023;-79
2022/03/14 10:15:21;;;;;;;10.43;6.15;;;;;;;6.27;47.72;102441.69;4949800;29;20038;-82
2022/03/14 10:17:46;;;;;;;9.00;5.70;;;;;;;6.31;46.62;102459.13;4949533;29;20043;-77
2022/03/14 10:20:15;;;;;;;8.98;5.70;;;;;;;6.61;46.73;102465.09;4949788;29;20038;-80
2022/03/14 10:22:41;;;;;;;10.10;5.50;;;;;;;6.61;45.88;102459.97;4949786;29;20031;-79
2022/03/14 10:25:10;;;;;;;9.40;5.57;;;;;;;6.42;45.38;102458.38;4933612;29;20043;-77
2022/03/14 10:27:45;;;;;;;13.13;7.05;;;;;;;6.35;49.49;102427.81;4949809;29;20039;-87
2022/03/14 10:30:27;;;;;;;9.77;6.03;;;;;;;6.55;48.86;102444.91;4965970;28;20149;-83
2022/03/14 10:33:12;;;;;;;12.15;7.82;;;;;;;6.59;46.74;102451.22;5010520;28;20467;-79
2022/03/14 10:35:40;;;;;;;15.63;8.43;;;;;;;6.49;46.71;102452.09;4992568;28;20036;-79
2022/03/14 10:38:09;;;;;;;11.45;6.97;;;;;;;6.53;48.22;102455.81;5010424;28;20061;-78
2022/03/14 10:40:37;;;;;;;10.10;6.25;;;;;;;6.49;47.47;102457.22;5016164;28;20464;-85
2022/03/14 10:43:08;;;;;;;13.25;8.57;;;;;;;6.41;47.82;102430.03;5029876;28;20036;-87
2022/03/14 10:45:35;;;;;;;10.27;7.60;;;;;;;6.56;47.86;102451.84;5030442;28;20022;-87
2022/03/14 10:48:02;;;;;;;9.23;5.68;;;;;;;6.20;46.05;102408.56;5030387;28;20100;-85
2022/03/14 10:50:35;;;;;;;19.20;7.07;;;;;;;6.32;48.86;102441.28;5030522;28;20116;-82
2022/03/14 10:53:03;;;;;;;25.20;9.85;;;;;;;6.42;47.93;102452.38;5030638;28;20025;-85
2022/03/14 10:55:43;;;;;;;17.15;11.15;;;;;;;6.39;47.06;102442.75;5007498;28;20100;-85
2022/03/14 10:58:14;;;;;;;17.00;8.98;;;;;;;6.41;47.54;102441.19;5007993;28;20115;-85
2022/03/14 11:00:49;;;;;;;11.18;6.68;;;;;;;6.35;47.75;102443.22;5008298;28;20069;-84
2022/03/14 11:03:32;;;;;;;12.88;7.13;;;;;;;6.32;46.87;102443.88;5011079;28;20081;-79
2022/03/14 11:06:02;;;;;;;11.32;6.72;;;;;;;6.21;48.66;102410.38;5011564;28;20425;-84
2022/03/14 11:08:35;;;;;;;13.23;6.10;;;;;;;6.20;46.96;102404.34;4994888;28;20042;-87
2022/03/14 11:11:06;;;;;;;11.18;6.10;;;;;;;6.46;46.21;102436.44;4995044;28;20622;-84
2022/03/14 11:13:36;;;;;;;10.70;6.03;;;;;;;6.59;47.64;102444.44;5011300;28;20046;-83
2022/03/14 11:16:03;;;;;;;17.58;10.45;;;;;;;6.63;47.56;102432.78;5011296;28;20037;-85
2022/03/14 11:18:29;;;;;;;11.00;7.10;;;;;;;6.77;46.57;102441.63;5011327;28;20524;-84